www.bettendroffer.lu
Wetterdaten: jeudi, 17.02.2011
Datum Zeit Temp. 1 ext. Temp. 3 Feuchte 1 Feuchte 3 Luftdruck Regen Wind Richtung Richtung Taupunkt Windchill
17.02.2011 00:09 0,4 C -0,1 C 58 % 69 % 993 hPa 0,0 l/m 0,0 km/h (0 Bft) N 360 -6,9 C 0,4 C
17.02.2011 00:39 0,1 C -0,5 C 58 % 69 % 993 hPa 0,0 l/m 0,0 km/h (0 Bft) N 360 -7,2 C 0,1 C
17.02.2011 01:09 -0,3 C -0,7 C 60 % 70 % 993 hPa 0,0 l/m 0,0 km/h (0 Bft) N 360 -7,1 C -0,3 C
17.02.2011 01:39 -0,7 C -1,2 C 59 % 70 % 993 hPa 0,0 l/m 0,0 km/h (0 Bft) N 360 -7,7 C -0,7 C
17.02.2011 02:09 -0,8 C -1,0 C 62 % 72 % 993 hPa 0,0 l/m 0,0 km/h (0 Bft) N 360 -7,1 C -0,8 C
17.02.2011 02:39 -1,0 C -1,4 C 62 % 71 % 993 hPa 0,0 l/m 0,0 km/h (0 Bft) N 360 -7,3 C -1,0 C
17.02.2011 03:09 -1,5 C -2,0 C 62 % 72 % 994 hPa 0,0 l/m 0,0 km/h (0 Bft) N 360 -7,8 C -1,5 C
17.02.2011 03:39 -1,5 C -2,1 C 63 % 72 % 993 hPa 0,0 l/m 0,0 km/h (0 Bft) N 360 -7,6 C -1,5 C
17.02.2011 04:09 -1,8 C -2,2 C 64 % 73 % 993 hPa 0,0 l/m 0,0 km/h (0 Bft) N 360 -7,7 C -1,8 C
17.02.2011 04:39 -1,9 C -2,4 C 65 % 73 % 993 hPa 0,0 l/m 0,0 km/h (0 Bft) N 360 -7,6 C -1,9 C
17.02.2011 05:09 -2,0 C -2,5 C 66 % 74 % 993 hPa 0,0 l/m 0,0 km/h (0 Bft) N 360 -7,5 C -2,0 C
17.02.2011 05:39 -1,9 C -2,2 C 69 % 75 % 994 hPa 0,0 l/m 0,0 km/h (0 Bft) N 360 -6,8 C -1,9 C
17.02.2011 06:09 -2,0 C -2,4 C 69 % 76 % 994 hPa 0,0 l/m 0,0 km/h (0 Bft) N 360 -6,9 C -2,0 C
17.02.2011 06:39 -2,0 C -2,2 C 71 % 77 % 994 hPa 0,0 l/m 0,0 km/h (0 Bft) N 360 -6,5 C -2,0 C
17.02.2011 07:09 -1,3 C -1,6 C 74 % 79 % 994 hPa 0,0 l/m 0,0 km/h (0 Bft) N 360 -5,3 C -1,3 C
17.02.2011 07:39 -0,6 C -0,9 C 75 % 80 % 994 hPa 0,0 l/m 0,0 km/h (0 Bft) N 360 -4,5 C -0,6 C
17.02.2011 08:09 0,0 C -0,4 C 76 % 80 % 995 hPa 0,0 l/m 0,0 km/h (0 Bft) N 360 -3,7 C 0,0 C
17.02.2011 08:39 0,5 C 0,1 C 76 % 81 % 995 hPa 0,0 l/m 0,0 km/h (0 Bft) N 360 -3,2 C 0,5 C
17.02.2011 09:09 1,1 C 0,8 C 76 % 82 % 995 hPa 0,0 l/m 0,0 km/h (0 Bft) N 360 -2,6 C 1,1 C
17.02.2011 09:39 2,7 C 5,3 C 76 % 83 % 996 hPa 0,0 l/m 0,0 km/h (0 Bft) N 355 -1,1 C 2,7 C
17.02.2011 10:08 3,7 C 4,9 C 71 % 76 % 996 hPa 0,0 l/m 0,0 km/h (0 Bft) N-NW 345 -1,1 C 3,7 C
17.02.2011 10:38 5,1 C 7,7 C 58 % 44 % 996 hPa 0,0 l/m 0,0 km/h (0 Bft) SO67.5 135 -2,5 C 5,1 C
17.02.2011 11:08 5,7 C 6,7 C 39 % 40 % 996 hPa 0,0 l/m 0,0 km/h (0 Bft) O67.5 85 -7,2 C 5,7 C
17.02.2011 11:39 5,3 C 4,9 C 35 % 46 % 997 hPa 0,0 l/m 0,0 km/h (0 Bft) O-SO 105 -8,9 C 5,3 C
17.02.2011 12:09 6,3 C 6,5 C 32 % 42 % 997 hPa 0,0 l/m 0,0 km/h (0 Bft) N-NW 335 -9,2 C 6,3 C
17.02.2011 12:39 6,1 C 5,9 C 29 % 43 % 997 hPa 0,0 l/m 0,0 km/h (0 Bft) SW 225 -10,6 C 6,1 C
17.02.2011 13:09 6,0 C 6,1 C 29 % 42 % 997 hPa 0,0 l/m 0,0 km/h (0 Bft) N45 350 -10,7 C 6,0 C
17.02.2011 13:39 8,9 C 10,1 C 26 % 35 % 997 hPa 0,0 l/m 0,0 km/h (0 Bft) SO45 135 -9,5 C 8,9 C
17.02.2011 14:09 13,7 C 15,9 C 20 % 20 % 996 hPa 0,0 l/m 0,0 km/h (0 Bft) S-SW22.5 200 -8,8 C 13,7 C
17.02.2011 14:39 14,5 C 14,6 C 20 % 20 % 997 hPa 0,0 l/m 0,0 km/h (0 Bft) O-SO67.5 105 -8,2 C 14,5 C
17.02.2011 15:09 14,2 C 15,6 C 20 % 20 % 997 hPa 0,0 l/m 0,0 km/h (0 Bft) SO45 130 -8,4 C 14,2 C
17.02.2011 15:39 13,8 C 10,6 C 20 % 20 % 997 hPa 0,0 l/m 0,0 km/h (0 Bft) SO45 130 -8,7 C 13,8 C
17.02.2011 16:09 11,2 C 8,8 C 20 % 31 % 997 hPa 0,0 l/m 0,0 km/h (0 Bft) N 350 -10,9 C 11,2 C
17.02.2011 16:39 9,7 C 7,5 C 20 % 36 % 997 hPa 0,0 l/m 0,0 km/h (0 Bft) O-SO 105 -12,1 C 9,7 C
17.02.2011 17:09 7,5 C 6,3 C 20 % 40 % 998 hPa 0,0 l/m 0,0 km/h (0 Bft) N-NW 345 -14,0 C 7,5 C
17.02.2011 17:39 5,9 C 5,3 C 27 % 44 % 998 hPa 0,0 l/m 0,0 km/h (0 Bft) NW 305 -11,6 C 5,9 C
17.02.2011 18:09 5,3 C 4,7 C 31 % 47 % 999 hPa 0,0 l/m 0,0 km/h (0 Bft) N-NW 345 -10,4 C 5,3 C
17.02.2011 18:39 4,8 C 4,2 C 33 % 48 % 999 hPa 0,0 l/m 0,0 km/h (0 Bft) N-NW 340 -10,1 C 4,8 C
17.02.2011 19:09 4,2 C 3,8 C 35 % 50 % 999 hPa 0,0 l/m 0,0 km/h (0 Bft) N-NW 340 -9,9 C 4,2 C
17.02.2011 19:39 3,5 C 3,0 C 36 % 52 % 1000 hPa 0,0 l/m 0,0 km/h (0 Bft) N-NW 340 -10,1 C 3,5 C
17.02.2011 20:09 3,1 C 2,8 C 41 % 56 % 1000 hPa 0,0 l/m 0,0 km/h (0 Bft) N-NW 340 -8,8 C 3,1 C
17.02.2011 20:39 3,0 C 2,6 C 41 % 57 % 1000 hPa 0,0 l/m 0,0 km/h (0 Bft) N-NW 340 -8,9 C 3,0 C
17.02.2011 21:09 3,2 C 2,8 C 41 % 59 % 1001 hPa 0,0 l/m 0,0 km/h (0 Bft) N-NW 340 -8,8 C 3,2 C
17.02.2011 21:39 3,1 C 2,5 C 42 % 59 % 1001 hPa 0,0 l/m 0,0 km/h (0 Bft) N-NW 340 -8,5 C 3,1 C
17.02.2011 22:09 2,5 C 2,2 C 44 % 60 % 1001 hPa 0,0 l/m 0,0 km/h (0 Bft) N-NW 340 -8,5 C 2,5 C
17.02.2011 22:39 2,2 C 1,8 C 45 % 62 % 1002 hPa 0,0 l/m 0,0 km/h (0 Bft) N-NW 340 -8,5 C 2,2 C
17.02.2011 23:09 2,1 C 1,7 C 46 % 64 % 1002 hPa 0,0 l/m 0,0 km/h (0 Bft) N-NW 340 -8,3 C 2,1 C
17.02.2011 23:39 2,7 C 2,3 C 47 % 64 % 1002 hPa 0,0 l/m 0,0 km/h (0 Bft) N-NW 340 -7,5 C 2,7 C
_ Min-Zeit 05:09 05:09 14:09 14:09 00:09 - 00:09 - - 17:09 05:09
Minimum _ -2,0 C -2,5 C 20 % 20 % 993 hPa - 0,0 km/h (0 Bft) - - -14,0 C -2,0 C
_ Max-Zeit 14:39 14:09 08:09 09:39 22:39 00:09 00:09 - - 10:08 14:39
Maximum _ 14,5 C 15,9 C 76 % 83 % 1002 hPa 0,0 l/m 0,0 km/h
N (0 Bft)
- - -1,1 C 14,5 C
Durchschnitt _ 3,4 C 3,2 C 48 % 58 % 996 hPa #0,0 l/m 0,0 km/h (0 Bft) - - - -7,8 C 3,4 C
©2001-2010 Bettendroffer Claude